Hovedside
METAR-TAF:

METAR-TAF

Lufthavner :

Touggourt, Algerie

breddegrad: 33-07N, lengdegrad: 006-08E, høyde over havet: 85 m

Gjeldene værobservasjon

Denne rapporten ble laget for 1 time og 8 minutter siden, klokken 09:00 UTC
Vind 12 kt fra Vest-sørvest
Temperatur 13°C
Luftfuktighet 47%
Trykk 1016 hPa
Sikt: 8000 m

METAR: DAUK 130900Z 24012KT 8000 NSC 13/02 Q1016

Tid: 11:08 (10:08 UTC)

Varsel

Denne rapporten ble laget for 2 timer og 8 minutter siden, klokken 08:00 UTC
Varsel gyldig fra 13. klokken 09 UTC til 13. klokken 18 UTC
Vind 12 kt fra Vest
Sikt: 8000 m
Sannsynlighet 40%
fra 13. klokken 09 UTC til 13. klokken 14 UTC
Vind 22 kt fra Vest
Sikt: 4000 m
lav sanddrev

TAF: DAUK 130800Z 1309/1318 26012KT 8000 NSC PROB40 1309/1314 26022KT 4000 DRSA

Værobservasjoner og værvarsel for over 4000 flyplasser (METAR- og TAF-rapporter).

Tilgjengelige stasjoner er representert av de røde og gule prikkene på kartet.

Hold musepekeren over prikken for å se navnet på stasjonen.

Klikk så for å se værobservasjoner og -varsler.

For å forandre kartet kan du klikke på den grønne knappen med svart kryss for å zoome inn, på den grønne knappen med strek for å zoome ut, eller på de grønne pilene for å se tilstøtende kart.


METAR-TAF: